sensor_id;sensor_type;location;lat;lon;timestamp;pressure;altitude;pressure_sealevel;temperature;humidity
31082;BME280;17737;52.586;13.284;2023-05-25T00:01:47;101851.97;;;11.04;77.09
31082;BME280;17737;52.586;13.284;2023-05-25T00:04:15;101851.38;;;11.10;77.04
31082;BME280;17737;52.586;13.284;2023-05-25T00:06:45;101853.09;;;11.11;77.21
31082;BME280;17737;52.586;13.284;2023-05-25T00:09:14;101853.09;;;11.11;76.98
31082;BME280;17737;52.586;13.284;2023-05-25T00:11:43;101848.84;;;11.09;76.20
31082;BME280;17737;52.586;13.284;2023-05-25T00:14:12;101856.22;;;11.07;76.18
31082;BME280;17737;52.586;13.284;2023-05-25T00:16:40;101858.66;;;11.10;75.76
31082;BME280;17737;52.586;13.284;2023-05-25T00:19:08;101857.50;;;11.12;75.69
31082;BME280;17737;52.586;13.284;2023-05-25T00:21:37;101857.75;;;11.19;75.69
31082;BME280;17737;52.586;13.284;2023-05-25T00:24:05;101854.38;;;11.17;75.87
31082;BME280;17737;52.586;13.284;2023-05-25T00:26:35;101852.78;;;11.24;75.58
31082;BME280;17737;52.586;13.284;2023-05-25T00:29:03;101859.47;;;11.20;75.81
31082;BME280;17737;52.586;13.284;2023-05-25T00:31:32;101849.41;;;11.12;75.73
31082;BME280;17737;52.586;13.284;2023-05-25T00:34:02;101850.97;;;11.15;75.76
31082;BME280;17737;52.586;13.284;2023-05-25T00:36:30;101862.16;;;11.10;75.52
31082;BME280;17737;52.586;13.284;2023-05-25T00:38:58;101856.94;;;11.09;75.67
31082;BME280;17737;52.586;13.284;2023-05-25T00:41:27;101851.38;;;11.10;76.12
31082;BME280;17737;52.586;13.284;2023-05-25T00:43:58;101851.13;;;11.04;75.96
31082;BME280;17737;52.586;13.284;2023-05-25T00:46:26;101854.97;;;11.01;76.10
31082;BME280;17737;52.586;13.284;2023-05-25T00:48:55;101851.28;;;10.93;76.35
31082;BME280;17737;52.586;13.284;2023-05-25T00:51:24;101849.72;;;10.90;76.69
31082;BME280;17737;52.586;13.284;2023-05-25T00:53:53;101855.41;;;10.77;76.93
31082;BME280;17737;52.586;13.284;2023-05-25T00:56:25;101854.84;;;10.74;77.33
31082;BME280;17737;52.586;13.284;2023-05-25T00:59:03;101841.22;;;10.75;77.43
31082;BME280;17737;52.586;13.284;2023-05-25T01:01:35;101848.31;;;10.86;77.35
31082;BME280;17737;52.586;13.284;2023-05-25T01:04:07;101837.09;;;10.71;77.27
31082;BME280;17737;52.586;13.284;2023-05-25T01:06:41;101847.31;;;10.68;77.30
31082;BME280;17737;52.586;13.284;2023-05-25T01:09:16;101842.25;;;10.55;77.91
31082;BME280;17737;52.586;13.284;2023-05-25T01:11:49;101845.63;;;10.67;77.42
31082;BME280;17737;52.586;13.284;2023-05-25T01:14:20;101845.34;;;10.51;77.93
31082;BME280;17737;52.586;13.284;2023-05-25T01:16:48;101844.75;;;10.47;78.20
31082;BME280;17737;52.586;13.284;2023-05-25T01:19:17;101848.31;;;10.48;78.91
31082;BME280;17737;52.586;13.284;2023-05-25T01:21:49;101844.47;;;10.41;78.80
31082;BME280;17737;52.586;13.284;2023-05-25T01:24:29;101846.88;;;10.44;79.19
31082;BME280;17737;52.586;13.284;2023-05-25T01:27:11;101846.75;;;10.45;79.08
31082;BME280;17737;52.586;13.284;2023-05-25T01:29:44;101852.56;;;10.41;79.31
31082;BME280;17737;52.586;13.284;2023-05-25T01:32:16;101844.91;;;10.46;79.29
31082;BME280;17737;52.586;13.284;2023-05-25T01:34:45;101853.56;;;10.40;79.46
31082;BME280;17737;52.586;13.284;2023-05-25T01:37:17;101853.28;;;10.33;79.78
31082;BME280;17737;52.586;13.284;2023-05-25T01:39:49;101849.69;;;10.14;80.06
31082;BME280;17737;52.586;13.284;2023-05-25T01:42:17;101855.50;;;10.19;80.10
31082;BME280;17737;52.586;13.284;2023-05-25T01:44:45;101853.97;;;10.16;80.10
31082;BME280;17737;52.586;13.284;2023-05-25T01:47:20;101850.56;;;10.14;80.66
31082;BME280;17737;52.586;13.284;2023-05-25T01:49:58;101857.91;;;10.12;80.49
31082;BME280;17737;52.586;13.284;2023-05-25T01:52:35;101857.09;;;10.21;80.56
31082;BME280;17737;52.586;13.284;2023-05-25T01:55:11;101856.22;;;10.11;80.77
31082;BME280;17737;52.586;13.284;2023-05-25T01:57:44;101850.69;;;10.13;80.86
31082;BME280;17737;52.586;13.284;2023-05-25T02:00:17;101848.94;;;10.02;82.01
31082;BME280;17737;52.586;13.284;2023-05-25T02:02:47;101850.34;;;10.06;82.11
31082;BME280;17737;52.586;13.284;2023-05-25T02:05:19;101853.03;;;10.06;82.06
31082;BME280;17737;52.586;13.284;2023-05-25T02:07:48;101848.22;;;10.00;82.44
31082;BME280;17737;52.586;13.284;2023-05-25T02:10:16;101843.72;;;10.10;82.03
31082;BME280;17737;52.586;13.284;2023-05-25T02:12:44;101835.75;;;9.99;81.96
31082;BME280;17737;52.586;13.284;2023-05-25T02:15:13;101847.34;;;10.00;82.39
31082;BME280;17737;52.586;13.284;2023-05-25T02:17:42;101851.72;;;9.91;82.67
31082;BME280;17737;52.586;13.284;2023-05-25T02:20:11;101850.47;;;9.95;82.59
31082;BME280;17737;52.586;13.284;2023-05-25T02:22:39;101856.66;;;9.86;82.41
31082;BME280;17737;52.586;13.284;2023-05-25T02:25:09;101852.69;;;9.81;82.46
31082;BME280;17737;52.586;13.284;2023-05-25T02:27:38;101862.47;;;9.91;82.17
31082;BME280;17737;52.586;13.284;2023-05-25T02:30:07;101859.06;;;9.80;82.56
31082;BME280;17737;52.586;13.284;2023-05-25T02:32:35;101863.84;;;9.76;82.59
31082;BME280;17737;52.586;13.284;2023-05-25T02:35:03;101859.28;;;9.67;83.79
31082;BME280;17737;52.586;13.284;2023-05-25T02:37:32;101869.34;;;9.65;83.70
31082;BME280;17737;52.586;13.284;2023-05-25T02:40:00;101869.59;;;9.62;84.37
31082;BME280;17737;52.586;13.284;2023-05-25T02:42:30;101862.81;;;9.67;83.34
31082;BME280;17737;52.586;13.284;2023-05-25T02:44:58;101868.34;;;9.66;84.24
31082;BME280;17737;52.586;13.284;2023-05-25T02:47:26;101868.22;;;9.67;84.54
31082;BME280;17737;52.586;13.284;2023-05-25T02:49:54;101857.31;;;9.69;84.33
31082;BME280;17737;52.586;13.284;2023-05-25T02:52:22;101852.38;;;9.74;84.19
31082;BME280;17737;52.586;13.284;2023-05-25T02:54:51;101853.22;;;9.65;83.78
31082;BME280;17737;52.586;13.284;2023-05-25T02:57:19;101859.25;;;9.57;84.92
31082;BME280;17737;52.586;13.284;2023-05-25T02:59:48;101853.78;;;9.68;84.90
31082;BME280;17737;52.586;13.284;2023-05-25T03:02:18;101852.94;;;9.68;84.24
31082;BME280;17737;52.586;13.284;2023-05-25T03:04:46;101859.16;;;9.68;84.67
31082;BME280;17737;52.586;13.284;2023-05-25T03:07:15;101857.06;;;9.72;84.85
31082;BME280;17737;52.586;13.284;2023-05-25T03:09:43;101853.78;;;9.68;84.55
31082;BME280;17737;52.586;13.284;2023-05-25T03:12:11;101863.28;;;9.73;84.43
31082;BME280;17737;52.586;13.284;2023-05-25T03:14:39;101855.38;;;9.81;84.52
31082;BME280;17737;52.586;13.284;2023-05-25T03:17:08;101866.25;;;9.79;84.10
31082;BME280;17737;52.586;13.284;2023-05-25T03:19:36;101862.97;;;9.66;84.72
31082;BME280;17737;52.586;13.284;2023-05-25T03:22:04;101864.56;;;9.68;84.89
31082;BME280;17737;52.586;13.284;2023-05-25T03:24:32;101865.66;;;9.66;84.95
31082;BME280;17737;52.586;13.284;2023-05-25T03:27:00;101867.13;;;9.80;84.45
31082;BME280;17737;52.586;13.284;2023-05-25T03:29:29;101861.75;;;9.80;84.24
31082;BME280;17737;52.586;13.284;2023-05-25T03:31:57;101860.78;;;9.81;83.98
31082;BME280;17737;52.586;13.284;2023-05-25T03:34:27;101867.41;;;9.77;84.20
31082;BME280;17737;52.586;13.284;2023-05-25T03:36:55;101868.00;;;9.80;84.68
31082;BME280;17737;52.586;13.284;2023-05-25T03:39:23;101869.19;;;10.06;83.92
31082;BME280;17737;52.586;13.284;2023-05-25T03:41:52;101875.13;;;10.68;81.44
31082;BME280;17737;52.586;13.284;2023-05-25T03:44:20;101869.59;;;11.08;79.60
31082;BME280;17737;52.586;13.284;2023-05-25T03:46:48;101875.50;;;11.21;78.46
31082;BME280;17737;52.586;13.284;2023-05-25T03:49:16;101868.50;;;11.47;77.31
31082;BME280;17737;52.586;13.284;2023-05-25T03:51:46;101879.63;;;11.71;76.31
31082;BME280;17737;52.586;13.284;2023-05-25T03:54:14;101881.84;;;11.95;75.11
31082;BME280;17737;52.586;13.284;2023-05-25T03:56:42;101890.88;;;12.03;74.55
31082;BME280;17737;52.586;13.284;2023-05-25T03:59:10;101902.69;;;12.02;74.70
31082;BME280;17737;52.586;13.284;2023-05-25T04:01:38;101901.47;;;12.15;73.91
31082;BME280;17737;52.586;13.284;2023-05-25T04:04:06;101905.88;;;12.60;72.50
31082;BME280;17737;52.586;13.284;2023-05-25T04:06:35;101909.00;;;12.38;73.06
31082;BME280;17737;52.586;13.284;2023-05-25T04:09:04;101911.78;;;12.29;73.19
31082;BME280;17737;52.586;13.284;2023-05-25T04:11:33;101903.66;;;12.56;72.71
31082;BME280;17737;52.586;13.284;2023-05-25T04:14:01;101909.69;;;12.85;71.64
31082;BME280;17737;52.586;13.284;2023-05-25T04:16:29;101913.00;;;12.96;70.90
31082;BME280;17737;52.586;13.284;2023-05-25T04:18:57;101908.50;;;12.87;70.63
31082;BME280;17737;52.586;13.284;2023-05-25T04:21:25;101911.94;;;13.07;69.97
31082;BME280;17737;52.586;13.284;2023-05-25T04:23:53;101913.47;;;13.09;70.02
31082;BME280;17737;52.586;13.284;2023-05-25T04:26:23;101913.84;;;13.32;69.15
31082;BME280;17737;52.586;13.284;2023-05-25T04:28:53;101911.09;;;13.50;68.60
31082;BME280;17737;52.586;13.284;2023-05-25T04:31:21;101910.06;;;13.25;68.80
31082;BME280;17737;52.586;13.284;2023-05-25T04:33:50;101918.28;;;13.15;69.30
31082;BME280;17737;52.586;13.284;2023-05-25T04:36:18;101922.22;;;13.21;69.74
31082;BME280;17737;52.586;13.284;2023-05-25T04:38:46;101910.97;;;13.34;68.83
31082;BME280;17737;52.586;13.284;2023-05-25T04:41:17;101922.50;;;13.61;68.17
31082;BME280;17737;52.586;13.284;2023-05-25T04:43:47;101917.59;;;13.90;66.91
31082;BME280;17737;52.586;13.284;2023-05-25T04:46:34;101915.38;;;14.19;65.94
31082;BME280;17737;52.586;13.284;2023-05-25T04:49:04;101912.66;;;14.19;65.74
31082;BME280;17737;52.586;13.284;2023-05-25T04:51:33;101914.09;;;14.31;65.55
31082;BME280;17737;52.586;13.284;2023-05-25T04:54:02;101920.00;;;14.27;66.07
31082;BME280;17737;52.586;13.284;2023-05-25T04:56:31;101917.63;;;14.32;65.34
31082;BME280;17737;52.586;13.284;2023-05-25T04:59:00;101921.53;;;14.29;65.20
31082;BME280;17737;52.586;13.284;2023-05-25T05:01:29;101913.16;;;14.73;64.75
31082;BME280;17737;52.586;13.284;2023-05-25T05:03:59;101917.13;;;14.86;63.61
31082;BME280;17737;52.586;13.284;2023-05-25T05:06:28;101912.53;;;15.43;62.45
31082;BME280;17737;52.586;13.284;2023-05-25T05:08:57;101915.19;;;15.75;61.12
31082;BME280;17737;52.586;13.284;2023-05-25T05:11:26;101920.50;;;14.96;62.70
31082;BME280;17737;52.586;13.284;2023-05-25T05:13:54;101914.88;;;15.70;61.81
31082;BME280;17737;52.586;13.284;2023-05-25T05:16:23;101912.09;;;16.33;59.56
31082;BME280;17737;52.586;13.284;2023-05-25T05:18:52;101914.06;;;15.53;61.88
31082;BME280;17737;52.586;13.284;2023-05-25T05:21:20;101915.16;;;15.91;61.22
31082;BME280;17737;52.586;13.284;2023-05-25T05:23:49;101923.75;;;16.11;60.45
31082;BME280;17737;52.586;13.284;2023-05-25T05:26:17;101918.38;;;15.95;61.39
31082;BME280;17737;52.586;13.284;2023-05-25T05:28:45;101928.78;;;15.83;61.29
31082;BME280;17737;52.586;13.284;2023-05-25T05:31:13;101930.69;;;15.26;62.56
31082;BME280;17737;52.586;13.284;2023-05-25T05:33:44;101928.28;;;15.72;62.06
31082;BME280;17737;52.586;13.284;2023-05-25T05:36:12;101925.75;;;15.38;62.44
31082;BME280;17737;52.586;13.284;2023-05-25T05:38:40;101933.47;;;15.97;61.81
31082;BME280;17737;52.586;13.284;2023-05-25T05:41:11;101931.06;;;14.42;65.58
31082;BME280;17737;52.586;13.284;2023-05-25T05:43:39;101939.06;;;13.84;68.24
31082;BME280;17737;52.586;13.284;2023-05-25T05:46:09;101944.28;;;13.52;69.83
31082;BME280;17737;52.586;13.284;2023-05-25T05:48:37;101943.28;;;13.35;71.02
31082;BME280;17737;52.586;13.284;2023-05-25T05:51:06;101950.25;;;13.38;71.43
31082;BME280;17737;52.586;13.284;2023-05-25T05:53:34;101947.91;;;13.86;70.70
31082;BME280;17737;52.586;13.284;2023-05-25T05:56:02;101944.59;;;13.74;70.33
31082;BME280;17737;52.586;13.284;2023-05-25T05:58:32;101948.78;;;13.94;69.54
31082;BME280;17737;52.586;13.284;2023-05-25T06:01:00;101947.19;;;13.84;69.99
31082;BME280;17737;52.586;13.284;2023-05-25T06:03:28;101954.31;;;13.85;69.85
31082;BME280;17737;52.586;13.284;2023-05-25T06:05:56;101953.19;;;13.95;69.91
31082;BME280;17737;52.586;13.284;2023-05-25T06:08:26;101955.41;;;13.74;70.80
31082;BME280;17737;52.586;13.284;2023-05-25T06:10:54;101954.81;;;13.80;70.61
31082;BME280;17737;52.586;13.284;2023-05-25T06:13:22;101960.06;;;13.82;70.95
31082;BME280;17737;52.586;13.284;2023-05-25T06:15:50;101960.50;;;14.03;70.36
31082;BME280;17737;52.586;13.284;2023-05-25T06:18:18;101955.31;;;14.43;69.26
31082;BME280;17737;52.586;13.284;2023-05-25T06:20:46;101962.59;;;14.17;69.30
31082;BME280;17737;52.586;13.284;2023-05-25T06:23:14;101967.34;;;14.15;69.59
31082;BME280;17737;52.586;13.284;2023-05-25T06:25:45;101964.78;;;14.39;69.42
31082;BME280;17737;52.586;13.284;2023-05-25T06:28:13;101959.94;;;14.59;69.02
31082;BME280;17737;52.586;13.284;2023-05-25T06:30:41;101959.78;;;14.68;68.25
31082;BME280;17737;52.586;13.284;2023-05-25T06:33:09;101964.50;;;14.58;68.40
31082;BME280;17737;52.586;13.284;2023-05-25T06:35:38;101964.97;;;14.46;68.91
31082;BME280;17737;52.586;13.284;2023-05-25T06:38:06;101963.66;;;14.58;69.27
31082;BME280;17737;52.586;13.284;2023-05-25T06:40:34;101972.66;;;14.58;69.01
31082;BME280;17737;52.586;13.284;2023-05-25T06:43:03;101970.63;;;14.68;68.83
31082;BME280;17737;52.586;13.284;2023-05-25T06:45:31;101975.25;;;14.76;69.13
31082;BME280;17737;52.586;13.284;2023-05-25T06:47:59;101966.94;;;14.77;68.84
31082;BME280;17737;52.586;13.284;2023-05-25T06:50:27;101976.47;;;14.89;68.98
31082;BME280;17737;52.586;13.284;2023-05-25T06:52:55;101971.75;;;15.07;68.42
31082;BME280;17737;52.586;13.284;2023-05-25T06:55:25;101969.75;;;15.25;67.67
31082;BME280;17737;52.586;13.284;2023-05-25T06:57:53;101978.53;;;15.27;66.99
31082;BME280;17737;52.586;13.284;2023-05-25T07:00:23;101969.25;;;15.54;66.44
31082;BME280;17737;52.586;13.284;2023-05-25T07:02:51;101973.44;;;15.32;66.52
31082;BME280;17737;52.586;13.284;2023-05-25T07:05:20;101977.19;;;15.23;67.21
31082;BME280;17737;52.586;13.284;2023-05-25T07:07:48;101975.19;;;15.41;66.77
31082;BME280;17737;52.586;13.284;2023-05-25T07:10:16;101978.75;;;15.34;66.48
31082;BME280;17737;52.586;13.284;2023-05-25T07:12:44;101981.13;;;15.61;65.09
31082;BME280;17737;52.586;13.284;2023-05-25T07:15:12;101979.28;;;15.45;65.51
31082;BME280;17737;52.586;13.284;2023-05-25T07:17:42;101975.84;;;15.76;64.80
31082;BME280;17737;52.586;13.284;2023-05-25T07:20:11;101973.81;;;15.78;65.10
31082;BME280;17737;52.586;13.284;2023-05-25T07:22:39;101975.97;;;15.90;64.83
31082;BME280;17737;52.586;13.284;2023-05-25T07:25:08;101986.28;;;16.19;62.49
31082;BME280;17737;52.586;13.284;2023-05-25T07:27:36;101986.88;;;16.37;61.54
31082;BME280;17737;52.586;13.284;2023-05-25T07:30:06;101986.59;;;16.24;60.19
31082;BME280;17737;52.586;13.284;2023-05-25T07:32:35;101986.59;;;16.24;60.31
31082;BME280;17737;52.586;13.284;2023-05-25T07:35:06;101989.81;;;16.27;61.11
31082;BME280;17737;52.586;13.284;2023-05-25T07:37:34;101987.63;;;16.23;60.75
31082;BME280;17737;52.586;13.284;2023-05-25T07:40:03;101986.28;;;16.19;60.65
31082;BME280;17737;52.586;13.284;2023-05-25T07:42:32;101993.06;;;16.23;60.85
31082;BME280;17737;52.586;13.284;2023-05-25T07:45:00;101993.13;;;16.07;60.17
31082;BME280;17737;52.586;13.284;2023-05-25T07:47:29;101992.97;;;15.92;60.16
31082;BME280;17737;52.586;13.284;2023-05-25T07:49:57;101986.44;;;16.25;59.59
31082;BME280;17737;52.586;13.284;2023-05-25T07:52:26;101998.44;;;16.39;59.71
31082;BME280;17737;52.586;13.284;2023-05-25T07:54:54;101996.41;;;16.49;58.68
31082;BME280;17737;52.586;13.284;2023-05-25T07:57:22;101998.81;;;16.36;56.16
31082;BME280;17737;52.586;13.284;2023-05-25T07:59:51;102001.78;;;16.57;57.55
31082;BME280;17737;52.586;13.284;2023-05-25T08:02:19;102004.03;;;16.84;55.78
31082;BME280;17737;52.586;13.284;2023-05-25T08:04:47;101997.97;;;17.05;54.92
31082;BME280;17737;52.586;13.284;2023-05-25T08:07:17;101993.50;;;17.12;54.43
31082;BME280;17737;52.586;13.284;2023-05-25T08:09:47;101998.66;;;16.76;55.23
31082;BME280;17737;52.586;13.284;2023-05-25T08:12:15;101999.22;;;16.94;55.37
31082;BME280;17737;52.586;13.284;2023-05-25T08:14:46;102001.59;;;17.42;53.77
31082;BME280;17737;52.586;13.284;2023-05-25T08:17:15;101995.03;;;17.14;54.35
31082;BME280;17737;52.586;13.284;2023-05-25T08:19:43;101998.38;;;17.16;54.39
31082;BME280;17737;52.586;13.284;2023-05-25T08:22:11;101997.97;;;17.27;52.56
31082;BME280;17737;52.586;13.284;2023-05-25T08:24:39;102000.31;;;17.08;50.95
31082;BME280;17737;52.586;13.284;2023-05-25T08:27:08;102009.44;;;17.23;52.69
31082;BME280;17737;52.586;13.284;2023-05-25T08:29:36;102008.56;;;17.22;54.07
31082;BME280;17737;52.586;13.284;2023-05-25T08:32:05;101997.31;;;17.25;52.47
31082;BME280;17737;52.586;13.284;2023-05-25T08:34:33;102001.19;;;17.08;52.81
31082;BME280;17737;52.586;13.284;2023-05-25T08:37:01;102007.31;;;16.80;52.59
31082;BME280;17737;52.586;13.284;2023-05-25T08:39:29;101994.56;;;16.80;50.65
31082;BME280;17737;52.586;13.284;2023-05-25T08:42:00;101999.44;;;16.85;52.54
31082;BME280;17737;52.586;13.284;2023-05-25T08:44:30;101998.59;;;16.84;52.29
31082;BME280;17737;52.586;13.284;2023-05-25T08:47:04;101998.59;;;16.84;51.08
31082;BME280;17737;52.586;13.284;2023-05-25T08:49:36;101998.66;;;17.29;51.32
31082;BME280;17737;52.586;13.284;2023-05-25T08:52:08;101998.97;;;17.34;51.21
31082;BME280;17737;52.586;13.284;2023-05-25T08:54:42;102007.91;;;17.20;50.91
31082;BME280;17737;52.586;13.284;2023-05-25T08:57:14;102002.84;;;17.40;51.41
31082;BME280;17737;52.586;13.284;2023-05-25T08:59:52;102011.44;;;17.51;51.72
31082;BME280;17737;52.586;13.284;2023-05-25T09:02:32;102008.53;;;17.90;50.66
31082;BME280;17737;52.586;13.284;2023-05-25T09:05:07;102004.91;;;18.27;51.07
31082;BME280;17737;52.586;13.284;2023-05-25T09:07:35;102005.69;;;18.50;50.73
31082;BME280;17737;52.586;13.284;2023-05-25T09:10:03;102015.94;;;18.33;52.15
31082;BME280;17737;52.586;13.284;2023-05-25T09:12:35;102013.72;;;17.62;53.53
31082;BME280;17737;52.586;13.284;2023-05-25T09:15:09;102009.03;;;17.03;53.71
31082;BME280;17737;52.586;13.284;2023-05-25T09:17:38;102008.50;;;16.77;54.23
31082;BME280;17737;52.586;13.284;2023-05-25T09:20:09;102009.09;;;16.95;53.00
31082;BME280;17737;52.586;13.284;2023-05-25T09:22:39;102020.72;;;16.81;54.27
31082;BME280;17737;52.586;13.284;2023-05-25T09:25:09;102017.13;;;17.19;54.52
31082;BME280;17737;52.586;13.284;2023-05-25T09:27:37;102014.50;;;17.26;53.36
31082;BME280;17737;52.586;13.284;2023-05-25T09:30:08;102022.50;;;17.27;52.48
31082;BME280;17737;52.586;13.284;2023-05-25T09:32:37;102024.16;;;17.36;51.60
31082;BME280;17737;52.586;13.284;2023-05-25T09:35:06;102023.81;;;17.09;52.24
31082;BME280;17737;52.586;13.284;2023-05-25T09:37:35;102017.94;;;17.20;50.81
31082;BME280;17737;52.586;13.284;2023-05-25T09:40:05;102030.75;;;17.64;50.98
31082;BME280;17737;52.586;13.284;2023-05-25T09:42:34;102021.41;;;17.81;51.46
31082;BME280;17737;52.586;13.284;2023-05-25T09:45:04;102021.59;;;17.57;51.25
31082;BME280;17737;52.586;13.284;2023-05-25T09:47:35;102029.03;;;17.18;50.59
31082;BME280;17737;52.586;13.284;2023-05-25T09:50:05;102035.75;;;17.30;54.06
31082;BME280;17737;52.586;13.284;2023-05-25T09:52:34;102028.25;;;17.32;54.68
31082;BME280;17737;52.586;13.284;2023-05-25T09:55:03;102024.91;;;17.22;52.40
31082;BME280;17737;52.586;13.284;2023-05-25T09:57:36;102032.59;;;17.49;53.23
31082;BME280;17737;52.586;13.284;2023-05-25T10:00:05;102038.06;;;17.64;53.29
31082;BME280;17737;52.586;13.284;2023-05-25T10:02:36;102036.66;;;17.90;52.26
31082;BME280;17737;52.586;13.284;2023-05-25T10:05:05;102033.78;;;17.69;52.38
31082;BME280;17737;52.586;13.284;2023-05-25T10:07:34;102031.16;;;18.13;52.55
31082;BME280;17737;52.586;13.284;2023-05-25T10:10:06;102038.50;;;17.75;53.01
31082;BME280;17737;52.586;13.284;2023-05-25T10:12:37;102034.03;;;17.60;55.00
31082;BME280;17737;52.586;13.284;2023-05-25T10:15:11;102039.59;;;17.66;55.21
31082;BME280;17737;52.586;13.284;2023-05-25T10:17:43;102037.03;;;17.42;56.29
31082;BME280;17737;52.586;13.284;2023-05-25T10:20:15;102033.09;;;17.45;55.40
31082;BME280;17737;52.586;13.284;2023-05-25T10:22:47;102033.38;;;17.05;54.88
31082;BME280;17737;52.586;13.284;2023-05-25T10:25:23;102037.09;;;17.34;56.26
31082;BME280;17737;52.586;13.284;2023-05-25T10:27:56;102038.53;;;17.53;55.08
31082;BME280;17737;52.586;13.284;2023-05-25T10:30:28;102038.41;;;17.46;55.31
31082;BME280;17737;52.586;13.284;2023-05-25T10:32:57;102034.25;;;17.50;55.23
31082;BME280;17737;52.586;13.284;2023-05-25T10:35:26;102031.25;;;18.20;51.90
31082;BME280;17737;52.586;13.284;2023-05-25T10:37:58;102032.38;;;18.11;50.43
31082;BME280;17737;52.586;13.284;2023-05-25T10:40:28;102037.00;;;17.50;53.44
31082;BME280;17737;52.586;13.284;2023-05-25T10:42:58;102034.19;;;17.36;53.77
31082;BME280;17737;52.586;13.284;2023-05-25T10:45:28;102036.56;;;17.61;53.50
31082;BME280;17737;52.586;13.284;2023-05-25T10:47:56;102024.22;;;17.73;54.04
31082;BME280;17737;52.586;13.284;2023-05-25T10:50:25;102032.59;;;17.86;53.46
31082;BME280;17737;52.586;13.284;2023-05-25T10:52:58;102030.66;;;17.58;53.78
31082;BME280;17737;52.586;13.284;2023-05-25T10:55:27;102032.06;;;17.23;54.70
31082;BME280;17737;52.586;13.284;2023-05-25T10:58:07;102029.91;;;17.41;54.06
31082;BME280;17737;52.586;13.284;2023-05-25T11:00:39;102030.25;;;17.83;52.75
31082;BME280;17737;52.586;13.284;2023-05-25T11:03:09;102021.59;;;17.94;50.88
31082;BME280;17737;52.586;13.284;2023-05-25T11:05:38;102027.66;;;18.05;49.95
31082;BME280;17737;52.586;13.284;2023-05-25T11:08:07;102026.63;;;17.91;50.18
31082;BME280;17737;52.586;13.284;2023-05-25T11:10:42;102028.84;;;17.87;50.24
31082;BME280;17737;52.586;13.284;2023-05-25T11:13:32;102018.72;;;17.96;51.09
31082;BME280;17737;52.586;13.284;2023-05-25T11:16:14;102021.47;;;17.73;51.22
31082;BME280;17737;52.586;13.284;2023-05-25T11:18:45;102030.34;;;17.75;52.02
31082;BME280;17737;52.586;13.284;2023-05-25T11:21:21;102030.25;;;17.83;52.04
31082;BME280;17737;52.586;13.284;2023-05-25T11:24:15;102035.41;;;17.78;52.63
31082;BME280;17737;52.586;13.284;2023-05-25T11:26:55;102028.50;;;18.05;51.25
31082;BME280;17737;52.586;13.284;2023-05-25T11:29:29;102027.00;;;18.03;50.29
31082;BME280;17737;52.586;13.284;2023-05-25T11:32:00;102035.44;;;17.93;50.48
31082;BME280;17737;52.586;13.284;2023-05-25T11:34:28;102043.66;;;18.08;49.75
31082;BME280;17737;52.586;13.284;2023-05-25T11:36:58;102036.34;;;18.23;49.13
31082;BME280;17737;52.586;13.284;2023-05-25T11:39:29;102038.09;;;18.88;47.02
31082;BME280;17737;52.586;13.284;2023-05-25T11:42:01;102042.50;;;19.04;47.10
31082;BME280;17737;52.586;13.284;2023-05-25T11:44:34;102038.53;;;18.56;48.02
31082;BME280;17737;52.586;13.284;2023-05-25T11:47:07;102037.59;;;18.49;51.65
31082;BME280;17737;52.586;13.284;2023-05-25T11:49:39;102043.63;;;18.45;52.50
31082;BME280;17737;52.586;13.284;2023-05-25T11:52:11;102031.31;;;18.99;51.72
31082;BME280;17737;52.586;13.284;2023-05-25T11:54:40;102038.97;;;18.89;52.50
31082;BME280;17737;52.586;13.284;2023-05-25T11:57:13;102032.97;;;18.50;52.05
31082;BME280;17737;52.586;13.284;2023-05-25T11:59:46;102033.91;;;18.57;52.19
31082;BME280;17737;52.586;13.284;2023-05-25T12:02:18;102029.78;;;18.61;51.43
31082;BME280;17737;52.586;13.284;2023-05-25T12:04:52;102026.56;;;19.07;51.46
31082;BME280;17737;52.586;13.284;2023-05-25T12:07:22;102029.97;;;19.09;50.67
31082;BME280;17737;52.586;13.284;2023-05-25T12:09:50;102027.22;;;18.59;51.85
31082;BME280;17737;52.586;13.284;2023-05-25T12:12:19;102025.78;;;18.34;52.51
31082;BME280;17737;52.586;13.284;2023-05-25T12:14:47;102014.53;;;18.52;53.06
31082;BME280;17737;52.586;13.284;2023-05-25T12:17:18;102027.69;;;18.77;53.01
31082;BME280;17737;52.586;13.284;2023-05-25T12:19:48;102024.97;;;18.77;52.81
31082;BME280;17737;52.586;13.284;2023-05-25T12:22:17;102022.84;;;18.44;53.23
31082;BME280;17737;52.586;13.284;2023-05-25T12:24:45;102024.34;;;18.61;53.49
31082;BME280;17737;52.586;13.284;2023-05-25T12:27:16;102017.91;;;18.83;52.88
31082;BME280;17737;52.586;13.284;2023-05-25T12:29:45;102019.63;;;19.26;52.22
31082;BME280;17737;52.586;13.284;2023-05-25T12:32:13;102023.19;;;19.41;52.22
31082;BME280;17737;52.586;13.284;2023-05-25T12:34:43;102017.69;;;19.20;52.89
31082;BME280;17737;52.586;13.284;2023-05-25T12:37:19;102019.50;;;18.77;53.90
31082;BME280;17737;52.586;13.284;2023-05-25T12:39:48;102022.16;;;18.71;53.56
31082;BME280;17737;52.586;13.284;2023-05-25T12:42:17;102013.91;;;18.85;54.24
31082;BME280;17737;52.586;13.284;2023-05-25T12:44:45;102015.25;;;18.75;54.93
31082;BME280;17737;52.586;13.284;2023-05-25T12:47:14;102007.34;;;18.80;54.49
31082;BME280;17737;52.586;13.284;2023-05-25T12:49:47;102008.97;;;19.10;53.53
31082;BME280;17737;52.586;13.284;2023-05-25T12:52:35;101999.19;;;18.65;54.37
31082;BME280;17737;52.586;13.284;2023-05-25T12:55:21;102010.72;;;18.24;55.40